Flight Track Log - Related Links

Times and Time Zones

All times are in EDT time to prevent confusion due to time zone crossing. See the N600TR flight status page for this flight to view local times or setup timezone preferences in your user account.

Time Position Orientation Groundspeed Altitude Reporting Facility
EDT Latitude Longitude Course Direction KTS MPH feet Rate Location/Type
Tue 02:11:52 PM 35.9150 -80.0133 256° West 269 310 7,100  Level Atlanta Center
Tue 02:12:00 PM 35.7703 -80.0983 201° Southwest  Level FlightAware Approximate
Tue 02:13:00 PM 35.6892 -80.1388 202° Southwest  Level FlightAware Approximate
Tue 02:13:00 PM 35.8634 -80.1198 239° Southwest  Level Estimated
Tue 02:14:00 PM 35.6070 -80.1799 202° Southwest  Level FlightAware Approximate
Tue 02:14:52 PM 35.7022 -80.1389 239° Southwest 308 354 11,900  Level Atlanta Center
Tue 02:15:00 PM 35.5249 -80.2209 202° Southwest  Level FlightAware Approximate
Tue 02:15:52 PM 35.6017 -80.1897 202° Southwest 350 403 14,200  Level Atlanta Center
Tue 02:16:00 PM 35.4733 -80.2979 256° West  Level FlightAware Approximate
Tue 02:16:52 PM 35.5483 -80.2892 237° Southwest 332 382 16,100  Level Atlanta Center
Tue 02:17:00 PM 35.4512 -80.4033 256° West  Level FlightAware Approximate
Tue 02:17:52 PM 35.5058 -80.3983 244° Southwest 355 409 18,000  Level Atlanta Center
Tue 02:18:52 PM 35.4631 -80.5097 245° Southwest 363 418 19,600 1,450 Climbing Atlanta Center
Tue 02:19:52 PM 35.4164 -80.6264 244° Southwest 375 432 20,900 1,450 Climbing Atlanta Center
Tue 02:20:00 PM 35.5426 -80.7740 239° Southwest  Level Estimated
Tue 02:20:52 PM 35.3819 -80.7478 251° West 380 437 22,500  Level Atlanta Center
Tue 02:21:52 PM 35.3561 -80.8733 256° West 387 445 23,800 1,100 Climbing Atlanta Center
Tue 02:22:52 PM 35.3236 -80.9917 251° West 387 445 24,700 850 Climbing Atlanta Center
Tue 02:23:52 PM 35.2850 -81.1153 249° West 392 451 25,500 800 Climbing Atlanta Center
Tue 02:24:52 PM 35.2483 -81.2464 251° West 398 458 26,300 850 Climbing Atlanta Center
Tue 02:25:52 PM 35.2075 -81.3800 250° West 418 481 27,200 900 Climbing Atlanta Center
Tue 02:26:52 PM 35.1667 -81.5236 251° West 418 481 28,100 400 Climbing Atlanta Center
Tue 02:27:52 PM 35.1278 -81.6617 251° West 425 489 28,000 -50 Descending Atlanta Center
Tue 02:28:52 PM 35.0886 -81.8000 251° West 435 501 28,000  Level Atlanta Center
Tue 02:29:52 PM 35.0514 -81.9356 251° West 425 489 28,000  Level Atlanta Center
Tue 02:30:52 PM 35.0139 -82.0708 251° West 431 496 28,000  Level Atlanta Center
Tue 02:31:52 PM 34.9764 -82.2086 252° West 426 490 28,000  Level Atlanta Center
Tue 02:32:52 PM 34.9367 -82.3411 250° West 421 484 28,000  Level Atlanta Center
Tue 02:33:52 PM 34.8925 -82.4739 248° West 421 484 28,000 -300 Level Atlanta Center
Tue 02:34:52 PM 34.8481 -82.6011 247° West 426 490 27,400 -700 Descending Atlanta Center
Tue 02:35:52 PM 34.8097 -82.7233 249° West 426 490 26,600 -800 Descending Atlanta Center
Tue 02:36:52 PM 34.7717 -82.8631 252° West 431 496 25,800 -800 Descending Atlanta Center
Tue 02:37:52 PM 34.7478 -83.0022 258° West 426 490 25,000 -850 Descending Atlanta Center
Tue 02:38:52 PM 34.7178 -83.1467 256° West 433 498 24,100 -800 Descending Atlanta Center
Tue 02:39:52 PM 34.6328 -83.2664 229° Southwest 424 488 23,400 -650 Descending Atlanta Center
Tue 02:40:52 PM 34.5247 -83.3353 208° Southwest 422 486 22,800 -650 Descending Atlanta Center
Tue 02:41:52 PM 34.4231 -83.4142 213° Southwest 433 498 22,100 -1,000 Descending Atlanta Center
Tue 02:42:52 PM 34.3336 -83.4953 217° Southwest 425 489 20,800 -2,150 Descending Atlanta Center
Tue 02:43:52 PM 34.2589 -83.5864 225° Southwest 398 458 17,800 -2,700 Descending Atlanta Center
Tue 02:44:52 PM 34.1839 -83.6722 223° Southwest 379 436 15,400 -2,650 Descending Atlanta Center
Tue 02:45:52 PM 34.1175 -83.7553 226° Southwest 363 418 12,500 -1,700 Descending Atlanta Center
Tue 02:46:52 PM 34.0592 -83.8358 229° Southwest 331 381 12,000 -555 Descending Atlanta Center
Tue 02:47:51 PM 34.0000 -83.9000 222° Southwest 290 334 11,400 -1,059 Descending Atlanta TRACON
Tue 02:48:51 PM 33.9333 -83.9333 203° Southwest 283 326 9,900 -1,250 Descending Atlanta TRACON
Tue 02:49:51 PM 33.8500 -83.9500 189° South 290 334 8,900 -496 Descending Atlanta TRACON
Tue 02:50:52 PM 33.7756 -83.9639 189° South 296 341 8,900 -893 Level Atlanta Center
Tue 02:51:52 PM 33.6983 -83.9839 192° South 291 335 7,100 -1,350 Descending Atlanta Center
Tue 02:52:52 PM 33.6272 -84.0314 209° Southwest 263 303 6,200 -700 Descending Atlanta Center
Tue 02:53:52 PM 33.6294 -84.1161 272° West 221 254 5,700 -950 Descending Atlanta Center
Tue 02:54:52 PM 33.6333 -84.2000 273° West 247 284 4,300 -1,261 Descending Atlanta TRACON
Tue 02:55:51 PM 33.6333 -84.2667 270° West 213 245 3,200 -1,050 Descending Atlanta TRACON
Tue 02:56:52 PM 33.6333 -84.3333 270° West 174 200 2,200 -843 Descending Atlanta TRACON
Tue 02:57:52 PM 33.6333 -84.3833 270° West 139 160 1,500 -700 Descending Atlanta TRACON

Login

Don't have an account? Register now (free) for customized features, flight alerts, and more!